Time;durP1;ratioP1;P1;durP2;ratioP2;P2;SDS_P1;SDS_P2;PMS_P1;PMS_P2;Temp;Humidity;BMP_temperature;BMP_pressure;BME280_temperature;BME280_humidity;BME280_pressure;Samples;Min_cycle;Max_cycle;Signal;HPM_P1;HPM_P2
2021/12/18 00:02:18;;;;;;;12.52;5.25;;;;;;;7.72;100.00;104864.13;10544013;28;20058;-59
2021/12/18 00:07:21;;;;;;;17.05;6.30;;;;;;;7.50;100.00;104855.00;10545713;28;20055;-57
2021/12/18 00:12:23;;;;;;;9.52;5.63;;;;;;;7.53;100.00;104862.88;10544396;28;20044;-58
2021/12/18 00:17:25;;;;;;;11.68;6.45;;;;;;;7.65;100.00;104877.91;10545203;28;20048;-58
2021/12/18 00:22:28;;;;;;;13.07;6.63;;;;;;;7.46;100.00;104850.53;10544459;28;20059;-59
2021/12/18 00:27:30;;;;;;;7.70;5.05;;;;;;;7.81;100.00;104853.84;10544753;28;20051;-60
2021/12/18 00:32:32;;;;;;;12.93;6.45;;;;;;;7.66;100.00;104837.03;10544274;28;20044;-59
2021/12/18 00:37:35;;;;;;;7.80;4.85;;;;;;;7.55;100.00;104847.25;10544022;28;20052;-58
2021/12/18 00:42:46;;;;;;;9.65;5.28;;;;;;;7.49;100.00;104824.53;10543535;28;20051;-59
2021/12/18 00:47:48;;;;;;;10.05;5.57;;;;;;;7.33;100.00;104825.06;10543624;28;20479;-59
2021/12/18 00:52:51;;;;;;;10.77;4.97;;;;;;;7.44;100.00;104824.44;10542252;28;20044;-59
2021/12/18 00:57:54;;;;;;;6.13;4.50;;;;;;;7.34;100.00;104821.63;10543072;28;20499;-58
2021/12/18 01:03:00;;;;;;;6.05;3.70;;;;;;;7.34;100.00;104824.22;10543026;28;20055;-60
2021/12/18 01:08:03;;;;;;;8.60;3.90;;;;;;;7.78;100.00;104858.13;10541939;28;20048;-59
2021/12/18 01:13:08;;;;;;;8.27;4.82;;;;;;;7.40;100.00;104851.31;10542696;28;20048;-59
2021/12/18 01:23:33;;;;;;;6.95;4.00;;;;;;;7.41;100.00;104832.22;10540970;28;20127;-60
2021/12/18 01:28:35;;;;;;;8.70;3.97;;;;;;;7.57;100.00;104832.53;10541916;28;20054;-60
2021/12/18 01:33:38;;;;;;;12.15;5.00;;;;;;;7.36;100.00;104826.03;10541505;28;20499;-59
2021/12/18 01:38:40;;;;;;;11.10;4.97;;;;;;;7.52;100.00;104849.81;10541426;28;20040;-59
2021/12/18 01:54:08;;;;;;;7.13;4.50;;;;;;;7.41;100.00;104844.34;10541291;28;20503;-59
2021/12/18 01:59:10;;;;;;;11.07;5.22;;;;;;;7.66;100.00;104845.72;10540873;28;20488;-59
2021/12/18 02:04:13;;;;;;;14.55;5.55;;;;;;;7.72;100.00;104845.00;10539781;28;20040;-60
2021/12/18 02:09:15;;;;;;;10.90;5.00;;;;;;;7.47;100.00;104826.22;10540562;28;20057;-59
2021/12/18 02:19:32;;;;;;;9.30;5.35;;;;;;;7.41;100.00;104841.75;10540238;28;20044;-60
2021/12/18 02:25:25;;;;;;;11.90;5.80;;;;;;;7.59;100.00;104825.59;10540007;28;20048;-59
2021/12/18 02:30:27;;;;;;;13.13;7.10;;;;;;;7.48;100.00;104817.56;10540068;28;20055;-59
2021/12/18 02:35:35;;;;;;;20.40;5.95;;;;;;;7.37;100.00;104816.47;10538196;28;20040;-59
2021/12/18 02:40:59;;;;;;;12.63;5.38;;;;;;;7.65;100.00;104833.56;10538894;28;20409;-58
2021/12/18 02:46:06;;;;;;;13.32;5.40;;;;;;;7.43;100.00;104812.25;10539740;28;20055;-59
2021/12/18 02:51:11;;;;;;;10.57;5.32;;;;;;;7.58;100.00;104827.34;10539835;28;20067;-58
2021/12/18 02:56:15;;;;;;;14.73;6.70;;;;;;;7.55;100.00;104821.19;10538186;28;20504;-58
2021/12/18 03:01:21;;;;;;;16.77;7.85;;;;;;;7.38;100.00;104794.75;10539432;28;20048;-58
2021/12/18 03:27:27;;;;;;;20.33;10.65;;;;;;;7.53;100.00;104787.25;10539100;28;20102;-59
2021/12/18 03:32:30;;;;;;;17.83;8.68;;;;;;;7.60;100.00;104799.56;10539006;28;20094;-59
2021/12/18 03:37:34;;;;;;;16.63;7.57;;;;;;;7.46;100.00;104784.47;10538516;28;20044;-59
2021/12/18 03:42:37;;;;;;;19.25;7.97;;;;;;;7.58;100.00;104788.22;10538391;28;20044;-59
2021/12/18 03:47:40;;;;;;;13.82;6.65;;;;;;;7.48;100.00;104777.56;10544372;28;20052;-59
2021/12/18 03:52:42;;;;;;;13.20;6.82;;;;;;;7.40;100.00;104786.13;10546206;28;20456;-58
2021/12/18 03:57:44;;;;;;;19.83;7.32;;;;;;;7.54;100.00;104786.38;10546140;28;20048;-60
2021/12/18 04:02:47;;;;;;;13.20;6.32;;;;;;;7.65;100.00;104794.44;10545496;28;20047;-60
2021/12/18 04:07:50;;;;;;;11.00;6.13;;;;;;;7.75;100.00;104813.72;10545317;28;20055;-59
2021/12/18 04:12:59;;;;;;;19.83;8.18;;;;;;;7.60;100.00;104799.56;10544942;28;20369;-60
2021/12/18 04:18:01;;;;;;;16.52;8.18;;;;;;;7.52;100.00;104795.03;10544921;28;20040;-60
2021/12/18 04:23:04;;;;;;;14.57;7.70;;;;;;;7.66;100.00;104803.13;10544746;28;20055;-61
2021/12/18 04:28:06;;;;;;;13.35;7.32;;;;;;;7.57;100.00;104809.91;10544677;28;20048;-58
2021/12/18 04:33:09;;;;;;;16.55;8.10;;;;;;;7.41;100.00;104807.84;10542854;28;20500;-59
2021/12/18 04:38:11;;;;;;;18.77;8.63;;;;;;;7.59;100.00;104817.78;10544062;28;20044;-60
2021/12/18 04:43:14;;;;;;;16.85;8.68;;;;;;;7.29;100.00;104794.56;10543543;28;20055;-60
2021/12/18 04:48:16;;;;;;;12.40;7.68;;;;;;;7.60;100.00;104812.59;10543801;28;20048;-59
2021/12/18 04:53:19;;;;;;;23.08;8.30;;;;;;;7.63;100.00;104832.63;10542488;28;20044;-60
2021/12/18 04:58:22;;;;;;;27.55;10.95;;;;;;;7.62;100.00;104818.72;10543202;28;20052;-60
2021/12/18 05:03:24;;;;;;;26.95;11.00;;;;;;;7.39;100.00;104817.38;10543035;28;20040;-59
2021/12/18 05:08:27;;;;;;;29.23;10.10;;;;;;;7.40;100.00;104806.97;10542878;28;20044;-59
2021/12/18 05:13:29;;;;;;;25.58;7.82;;;;;;;7.43;100.00;104827.00;10542727;28;20052;-58
2021/12/18 05:18:31;;;;;;;21.38;7.50;;;;;;;7.48;100.00;104811.47;10542359;28;20400;-58
2021/12/18 05:23:34;;;;;;;25.63;9.15;;;;;;;7.28;100.00;104787.59;10542002;28;20043;-59
2021/12/18 05:28:36;;;;;;;30.48;10.98;;;;;;;7.41;100.00;104798.31;10542046;28;20134;-59
2021/12/18 05:33:39;;;;;;;32.03;11.00;;;;;;;7.29;100.00;104811.09;10541934;28;20047;-60
2021/12/18 05:38:41;;;;;;;40.70;11.45;;;;;;;7.24;100.00;104803.16;10541750;28;20044;-59
2021/12/18 05:43:44;;;;;;;28.98;10.45;;;;;;;7.15;100.00;104802.13;10541253;28;20048;-58
2021/12/18 05:48:47;;;;;;;38.85;11.52;;;;;;;7.25;100.00;104796.25;10541125;28;20067;-59
2021/12/18 05:53:49;;;;;;;33.15;10.32;;;;;;;7.23;100.00;104806.63;10541053;28;20420;-58
2021/12/18 05:58:51;;;;;;;28.98;9.15;;;;;;;7.42;100.00;104813.09;10542038;28;20052;-60
2021/12/18 06:03:54;;;;;;;30.40;9.25;;;;;;;7.33;100.00;104794.69;10540717;28;20040;-59
2021/12/18 06:08:57;;;;;;;28.83;8.18;;;;;;;7.37;100.00;104793.00;10540491;28;20446;-60
2021/12/18 06:14:00;;;;;;;23.73;8.82;;;;;;;7.32;100.00;104792.91;10540456;28;20052;-59
2021/12/18 06:19:02;;;;;;;33.38;9.57;;;;;;;7.42;100.00;104778.31;10540280;28;20044;-59
2021/12/18 06:24:05;;;;;;;26.70;8.07;;;;;;;7.09;100.00;104761.16;10539823;28;20523;-59
2021/12/18 06:29:07;;;;;;;15.82;6.97;;;;;;;7.17;100.00;104770.00;10540257;28;20048;-59
2021/12/18 06:34:09;;;;;;;33.05;8.18;;;;;;;7.15;100.00;104776.06;10539761;28;20044;-60
2021/12/18 06:39:12;;;;;;;25.83;6.90;;;;;;;6.89;100.00;104781.56;10539917;28;20048;-58
2021/12/18 06:44:14;;;;;;;21.85;6.43;;;;;;;6.88;100.00;104775.47;10540082;28;20040;-59
2021/12/18 06:49:16;;;;;;;22.25;6.70;;;;;;;6.89;100.00;104789.38;10540196;28;20055;-60
2021/12/18 06:54:19;;;;;;;14.75;5.07;;;;;;;6.79;100.00;104787.41;10539426;28;20052;-60
2021/12/18 06:59:21;;;;;;;23.30;5.95;;;;;;;6.80;100.00;104784.84;10539773;28;20051;-60
2021/12/18 07:04:24;;;;;;;20.58;5.85;;;;;;;6.85;100.00;104790.16;10538575;28;20058;-59
2021/12/18 07:09:27;;;;;;;29.58;7.88;;;;;;;6.88;100.00;104791.13;10539732;28;20044;-59
2021/12/18 07:14:29;;;;;;;28.77;7.03;;;;;;;6.97;100.00;104786.94;10538876;28;20055;-60
2021/12/18 07:19:31;;;;;;;19.42;6.25;;;;;;;6.96;100.00;104813.84;10539552;28;20057;-59
2021/12/18 07:24:34;;;;;;;21.40;6.20;;;;;;;6.96;100.00;104812.16;10546705;28;20048;-59
2021/12/18 07:29:36;;;;;;;20.75;6.57;;;;;;;6.97;100.00;104806.06;10546814;28;20052;-59
2021/12/18 07:34:39;;;;;;;18.25;6.05;;;;;;;7.01;100.00;104794.88;10547047;28;20051;-60
2021/12/18 07:39:41;;;;;;;27.10;6.82;;;;;;;6.85;100.00;104804.06;10546264;28;20052;-59
2021/12/18 07:44:43;;;;;;;15.85;5.30;;;;;;;7.12;100.00;104805.53;10546145;28;20476;-60
2021/12/18 07:49:46;;;;;;;20.10;5.78;;;;;;;6.84;100.00;104793.59;10546309;28;20062;-60
2021/12/18 07:54:48;;;;;;;21.75;6.07;;;;;;;6.95;100.00;104794.72;10545505;28;20056;-59
2021/12/18 07:59:51;;;;;;;17.17;6.18;;;;;;;6.86;100.00;104795.41;10546059;28;20044;-59
2021/12/18 08:04:53;;;;;;;36.97;9.38;;;;;;;6.90;100.00;104806.78;10545447;28;20044;-60
2021/12/18 08:09:55;;;;;;;17.45;5.72;;;;;;;6.93;100.00;104798.16;10544199;28;20072;-60
2021/12/18 08:14:58;;;;;;;19.17;5.88;;;;;;;6.86;100.00;104794.56;10544528;28;20416;-59
2021/12/18 08:20:01;;;;;;;26.60;6.60;;;;;;;6.82;100.00;104790.97;10544819;28;20399;-60
2021/12/18 08:25:05;;;;;;;25.42;6.97;;;;;;;6.76;100.00;104783.03;10543127;28;20055;-59
2021/12/18 08:30:08;;;;;;;26.65;5.90;;;;;;;6.72;100.00;104791.59;10544430;28;20113;-59
2021/12/18 08:35:11;;;;;;;17.55;4.40;;;;;;;6.73;100.00;104789.91;10542720;28;20522;-59
2021/12/18 08:40:13;;;;;;;15.30;4.10;;;;;;;6.84;100.00;104973.38;10543906;28;20488;-59
2021/12/18 08:45:16;;;;;;;30.40;8.45;;;;;;;6.87;100.00;104913.53;10543900;28;20044;-60
2021/12/18 08:50:19;;;;;;;25.92;6.68;;;;;;;6.97;100.00;104891.19;10543522;28;20052;-61
2021/12/18 08:55:23;;;;;;;14.75;4.35;;;;;;;6.89;100.00;104877.97;10543262;28;20052;-60
2021/12/18 09:00:26;;;;;;;15.13;4.65;;;;;;;6.95;100.00;104872.03;10542121;28;20048;-60
2021/12/18 09:05:29;;;;;;;14.95;4.68;;;;;;;7.01;100.00;104869.53;10542762;28;20126;-61
2021/12/18 09:10:32;;;;;;;18.02;4.15;;;;;;;6.99;100.00;104863.44;10543070;28;20048;-60
2021/12/18 09:15:35;;;;;;;9.75;3.60;;;;;;;7.03;100.00;104868.75;10542418;28;20404;-60
2021/12/18 09:20:37;;;;;;;13.63;4.13;;;;;;;6.97;100.00;104865.13;10542665;28;20044;-60
2021/12/18 09:25:40;;;;;;;8.88;3.55;;;;;;;7.25;100.00;104960.47;10542269;28;20054;-60
2021/12/18 09:30:42;;;;;;;9.77;3.83;;;;;;;7.28;100.00;104907.50;10541984;28;20495;-59
2021/12/18 09:35:45;;;;;;;8.43;3.97;;;;;;;6.94;100.00;104897.19;10541766;28;20051;-60
2021/12/18 09:40:48;;;;;;;9.90;3.60;;;;;;;6.99;100.00;104902.50;10537723;28;20071;-60
2021/12/18 09:45:50;;;;;;;9.98;3.45;;;;;;;6.98;100.00;104905.97;10539479;28;20063;-61
2021/12/18 09:50:56;;;;;;;10.10;3.53;;;;;;;6.95;100.00;104908.50;10540994;28;20518;-59
2021/12/18 09:55:58;;;;;;;9.68;3.35;;;;;;;6.96;100.00;104890.31;10540781;28;20048;-59
2021/12/18 10:01:02;;;;;;;10.63;3.80;;;;;;;7.22;100.00;104896.09;10540830;28;20048;-61
2021/12/18 10:06:41;;;;;;;8.85;3.17;;;;;;;7.02;100.00;104895.63;10541260;28;20066;-60
2021/12/18 10:11:53;;;;;;;7.93;3.85;;;;;;;7.24;100.00;104891.78;10541319;28;20052;-59
2021/12/18 10:16:55;;;;;;;6.97;2.78;;;;;;;7.07;100.00;104874.91;10539181;28;20048;-60
2021/12/18 10:22:04;;;;;;;18.88;9.70;;;;;;;6.99;100.00;104872.16;10540318;28;20052;-59
2021/12/18 10:27:41;;;;;;;19.30;8.60;;;;;;;6.90;100.00;104877.13;10540193;28;20044;-59
2021/12/18 10:33:05;;;;;;;23.65;10.13;;;;;;;6.70;100.00;104853.22;10526822;28;20048;-60
2021/12/18 10:38:08;;;;;;;21.05;9.95;;;;;;;6.97;100.00;104857.31;10539017;28;20044;-61
2021/12/18 10:43:10;;;;;;;25.95;10.93;;;;;;;6.69;100.00;104854.94;10539736;28;20051;-60
2021/12/18 10:48:15;;;;;;;18.73;9.15;;;;;;;6.81;100.00;104862.16;10539957;28;20057;-60
2021/12/18 10:53:23;;;;;;;15.77;10.27;;;;;;;6.69;100.00;104867.06;10540155;28;20056;-59
2021/12/18 10:58:29;;;;;;;18.05;9.75;;;;;;;6.85;100.00;104855.31;10547973;28;20044;-59
2021/12/18 11:03:43;;;;;;;7.70;5.07;;;;;;;6.85;100.00;104850.97;10548017;28;20044;-59
2021/12/18 11:09:04;;;;;;;7.45;3.58;;;;;;;6.64;100.00;104834.81;10547736;28;20049;-60
2021/12/18 11:14:26;;;;;;;11.25;4.72;;;;;;;7.03;100.00;104852.25;10547312;28;20048;-60
2021/12/18 11:19:30;;;;;;;7.32;3.83;;;;;;;6.81;100.00;104840.47;10547771;28;20067;-61
2021/12/18 11:24:40;;;;;;;7.07;4.63;;;;;;;6.92;100.00;104840.69;10546958;28;20392;-59
2021/12/18 11:29:51;;;;;;;5.97;3.10;;;;;;;6.94;100.00;104850.28;10546887;28;20488;-59
2021/12/18 11:34:55;;;;;;;5.37;3.20;;;;;;;6.79;100.00;104830.00;10547060;28;20048;-61
2021/12/18 11:39:58;;;;;;;6.10;3.53;;;;;;;6.70;100.00;104821.97;10546406;28;20302;-59
2021/12/18 11:45:03;;;;;;;6.25;3.33;;;;;;;6.61;100.00;104814.81;10546165;28;20394;-62
2021/12/18 11:50:24;;;;;;;4.45;2.90;;;;;;;6.51;100.00;104808.50;10546195;28;20056;-60
2021/12/18 11:55:31;;;;;;;4.05;2.90;;;;;;;6.77;100.00;104807.34;10545897;28;20048;-59
2021/12/18 12:00:38;;;;;;;4.75;2.58;;;;;;;6.95;100.00;104815.59;10543139;28;20388;-60
2021/12/18 12:05:46;;;;;;;2.97;2.13;;;;;;;6.80;100.00;104800.47;10544371;28;20083;-60
2021/12/18 12:11:17;;;;;;;1.63;1.27;;;;;;;6.68;100.00;104800.22;10545164;28;20070;-60
2021/12/18 12:16:39;;;;;;;3.90;1.90;;;;;;;7.09;100.00;104818.47;10545098;28;20055;-60
2021/12/18 12:21:51;;;;;;;2.22;1.70;;;;;;;6.84;100.00;104786.69;10544856;28;20122;-60
2021/12/18 12:26:54;;;;;;;1.58;1.48;;;;;;;7.13;100.00;104793.34;10544546;28;20055;-61
2021/12/18 12:31:59;;;;;;;1.50;1.40;;;;;;;6.93;100.00;104795.56;10544314;28;20055;-60
2021/12/18 12:37:38;;;;;;;1.77;1.67;;;;;;;6.84;100.00;104778.88;10544856;28;20055;-60
2021/12/18 12:43:01;;;;;;;2.38;2.03;;;;;;;7.06;100.00;104784.53;10540312;28;20052;-60
2021/12/18 12:48:04;;;;;;;1.23;1.13;;;;;;;7.05;100.00;104769.75;10544095;28;20130;-61
2021/12/18 12:53:09;;;;;;;2.83;1.77;;;;;;;6.64;100.00;104751.50;10544103;28;20048;-60
2021/12/18 12:58:27;;;;;;;3.08;2.55;;;;;;;6.83;100.00;104751.06;10543179;28;20055;-60
2021/12/18 13:03:36;;;;;;;5.15;3.15;;;;;;;6.91;100.00;104748.63;10543513;28;20051;-60
2021/12/18 13:08:41;;;;;;;3.53;3.22;;;;;;;6.93;100.00;104740.84;10542016;28;20102;-59
2021/12/18 13:13:44;;;;;;;3.60;2.33;;;;;;;7.01;100.00;104740.16;10542454;28;20051;-60
2021/12/18 13:18:52;;;;;;;2.55;1.80;;;;;;;6.82;100.00;104730.19;10539671;28;20476;-59
2021/12/18 13:24:08;;;;;;;3.67;2.22;;;;;;;6.70;100.00;104713.44;10542949;28;20048;-60
2021/12/18 13:29:12;;;;;;;6.35;4.93;;;;;;;6.72;100.00;104716.06;10542557;28;20048;-60
2021/12/18 13:34:20;;;;;;;4.80;3.22;;;;;;;6.80;100.00;104724.06;10541779;28;20048;-60
2021/12/18 13:39:37;;;;;;;2.13;1.92;;;;;;;6.74;100.00;104708.31;10542033;28;20052;-60
2021/12/18 13:44:46;;;;;;;5.18;3.20;;;;;;;6.56;100.00;104722.69;10540333;28;20052;-61
2021/12/18 13:49:50;;;;;;;4.22;2.63;;;;;;;6.69;100.00;104708.19;10541450;28;20066;-62
2021/12/18 13:55:26;;;;;;;2.80;1.90;;;;;;;6.63;100.00;104698.53;10541138;28;20109;-60
2021/12/18 14:00:49;;;;;;;2.50;2.30;;;;;;;6.79;100.00;104693.66;10541473;28;20048;-61
2021/12/18 14:05:54;;;;;;;2.75;1.90;;;;;;;6.79;100.00;104688.44;10540881;28;20040;-60
2021/12/18 14:11:00;;;;;;;2.85;1.65;;;;;;;6.94;100.00;104693.09;10540724;28;20048;-62
2021/12/18 14:16:09;;;;;;;1.90;1.63;;;;;;;6.62;100.00;104677.66;10539384;28;20048;-60
2021/12/18 14:21:11;;;;;;;2.22;1.70;;;;;;;6.75;100.00;104679.69;10540415;28;20056;-61
2021/12/18 14:26:25;;;;;;;2.90;2.15;;;;;;;6.72;100.00;104677.00;10540061;28;20480;-60
2021/12/18 14:31:37;;;;;;;2.22;1.38;;;;;;;6.83;100.00;104685.06;10539663;28;20055;-60
2021/12/18 14:36:53;;;;;;;2.50;1.60;;;;;;;6.72;100.00;104692.63;10540473;28;20051;-62
2021/12/18 14:42:01;;;;;;;2.03;1.90;;;;;;;6.46;100.00;104692.97;10539525;28;20416;-61
2021/12/18 14:47:23;;;;;;;2.80;2.20;;;;;;;6.41;100.00;104788.31;10539657;28;20056;-61
2021/12/18 14:52:26;;;;;;;2.40;2.17;;;;;;;6.54;100.00;104669.72;10539637;28;20052;-60
2021/12/18 14:57:30;;;;;;;3.15;2.45;;;;;;;6.62;100.00;104706.31;10539500;28;20048;-60
2021/12/18 15:02:33;;;;;;;5.72;3.15;;;;;;;6.50;100.00;104785.03;10539375;28;20048;-63
2021/12/18 15:07:35;;;;;;;3.92;3.45;;;;;;;6.49;100.00;104745.09;10538470;28;20044;-61
2021/12/18 15:12:37;;;;;;;4.70;3.20;;;;;;;6.60;100.00;104728.84;10538931;28;20047;-60
2021/12/18 15:17:40;;;;;;;7.57;2.75;;;;;;;6.53;100.00;104727.81;10539340;28;20052;-60
2021/12/18 15:22:42;;;;;;;4.15;3.05;;;;;;;6.68;100.00;104735.97;10539159;28;20052;-61
2021/12/18 15:27:44;;;;;;;3.25;2.60;;;;;;;6.64;100.00;104730.66;10539647;28;20044;-62
2021/12/18 15:32:47;;;;;;;7.05;3.35;;;;;;;6.63;100.00;104734.13;10538330;28;20048;-61
2021/12/18 15:37:51;;;;;;;4.68;3.90;;;;;;;6.93;100.00;104731.31;10539275;28;20052;-60
2021/12/18 15:42:53;;;;;;;4.63;3.95;;;;;;;6.79;100.00;104738.84;10542787;28;20514;-60
2021/12/18 15:47:56;;;;;;;5.88;4.95;;;;;;;6.79;100.00;104735.31;10546333;28;20048;-59
2021/12/18 15:52:59;;;;;;;8.50;6.07;;;;;;;6.70;100.00;104729.06;10545899;28;20078;-60
2021/12/18 15:58:01;;;;;;;6.72;4.95;;;;;;;6.53;100.00;104730.44;10546413;28;20062;-60
2021/12/18 16:03:04;;;;;;;8.07;5.30;;;;;;;6.47;100.00;104702.53;10544312;28;20487;-58
2021/12/18 16:08:09;;;;;;;8.82;6.65;;;;;;;6.71;100.00;104716.94;10545444;28;20497;-59
2021/12/18 16:13:13;;;;;;;8.27;6.50;;;;;;;6.48;100.00;104706.88;10545715;28;20059;-59
2021/12/18 16:18:16;;;;;;;14.02;9.18;;;;;;;6.29;100.00;104695.19;10544114;28;20044;-60
2021/12/18 16:23:19;;;;;;;13.57;8.50;;;;;;;6.83;100.00;104712.00;10544998;28;20057;-59
2021/12/18 16:28:23;;;;;;;20.67;12.63;;;;;;;6.95;100.00;104708.75;10544712;28;20048;-62
2021/12/18 16:33:30;;;;;;;14.02;9.23;;;;;;;6.66;100.00;104695.13;10544433;28;20044;-59
2021/12/18 16:38:34;;;;;;;23.90;16.45;;;;;;;6.76;100.00;104693.56;10544574;28;20044;-60
2021/12/18 16:43:39;;;;;;;16.08;12.30;;;;;;;6.61;100.00;104707.19;10543870;28;20076;-59
2021/12/18 16:48:42;;;;;;;15.60;11.25;;;;;;;6.67;100.00;104692.56;10543696;28;20048;-60
2021/12/18 16:53:44;;;;;;;23.02;14.68;;;;;;;6.80;100.00;104709.31;10543013;28;20109;-60
2021/12/18 16:58:47;;;;;;;26.70;16.10;;;;;;;6.93;100.00;104687.00;10543390;28;20052;-60
2021/12/18 17:03:50;;;;;;;18.58;12.57;;;;;;;6.93;100.00;104688.75;10541973;28;20439;-60
2021/12/18 17:08:53;;;;;;;20.60;14.60;;;;;;;6.83;100.00;104675.50;10543207;28;20056;-60
2021/12/18 17:13:56;;;;;;;16.63;13.15;;;;;;;7.14;100.00;104702.19;10543534;28;20126;-60
2021/12/18 17:18:59;;;;;;;20.27;15.65;;;;;;;6.94;100.00;104683.53;10542878;28;20051;-59
2021/12/18 17:24:03;;;;;;;20.70;14.18;;;;;;;6.82;100.00;104678.09;10541075;28;20571;-59
2021/12/18 17:29:06;;;;;;;17.90;13.05;;;;;;;7.07;100.00;104688.16;10542407;28;20051;-61
2021/12/18 17:34:08;;;;;;;19.33;13.23;;;;;;;6.94;100.00;104683.53;10540840;28;20044;-60
2021/12/18 17:39:12;;;;;;;16.80;11.30;;;;;;;6.91;100.00;104687.81;10541843;28;20056;-61
2021/12/18 17:44:14;;;;;;;13.10;9.35;;;;;;;6.86;100.00;104682.53;10541607;28;20060;-60
2021/12/18 17:49:16;;;;;;;9.27;7.32;;;;;;;7.04;100.00;104695.94;10540729;28;20055;-60
2021/12/18 17:54:19;;;;;;;11.43;7.85;;;;;;;7.07;100.00;104679.47;10541585;28;20048;-60
2021/12/18 17:59:21;;;;;;;19.45;12.07;;;;;;;6.94;100.00;104678.31;10541045;28;20044;-62
2021/12/18 18:04:24;;;;;;;15.52;12.20;;;;;;;7.00;100.00;104682.81;10539981;28;20518;-60
2021/12/18 18:09:30;;;;;;;13.50;10.27;;;;;;;6.79;100.00;104667.59;10540823;28;20059;-60
2021/12/18 18:14:33;;;;;;;12.68;8.90;;;;;;;6.95;100.00;104679.22;10540893;28;20044;-60
2021/12/18 18:19:35;;;;;;;9.00;7.25;;;;;;;7.06;100.00;104685.50;10540271;28;20369;-61
2021/12/18 18:24:37;;;;;;;10.15;6.63;;;;;;;7.16;100.00;104686.56;10540543;28;20416;-60
2021/12/18 18:29:40;;;;;;;9.23;6.03;;;;;;;6.86;100.00;104677.31;10540238;28;20048;-62
2021/12/18 18:34:42;;;;;;;10.15;6.45;;;;;;;7.02;100.00;104681.09;10539990;28;20047;-61
2021/12/18 18:39:44;;;;;;;10.73;8.23;;;;;;;7.06;100.00;104680.28;10539689;28;20044;-60
2021/12/18 18:44:50;;;;;;;10.95;7.57;;;;;;;7.18;100.00;104664.03;10539959;28;20047;-61
2021/12/18 18:49:52;;;;;;;18.40;11.93;;;;;;;7.05;100.00;104652.50;10539867;28;20048;-61
2021/12/18 18:54:55;;;;;;;14.38;9.85;;;;;;;7.07;100.00;104649.06;10539717;28;20055;-61
2021/12/18 18:59:57;;;;;;;10.20;7.63;;;;;;;7.00;100.00;104641.09;10539791;28;20055;-61
2021/12/18 19:04:59;;;;;;;15.45;10.27;;;;;;;7.14;100.00;104655.25;10539846;28;20058;-61
2021/12/18 19:10:03;;;;;;;12.15;8.68;;;;;;;7.20;100.00;104644.97;10538274;28;20060;-60
2021/12/18 19:15:08;;;;;;;12.10;9.20;;;;;;;7.23;100.00;104636.34;10541004;28;20055;-60
2021/12/18 19:20:13;;;;;;;15.75;11.35;;;;;;;7.06;100.00;104626.47;10547336;28;20450;-61
2021/12/18 19:25:17;;;;;;;21.60;13.68;;;;;;;6.88;100.00;104624.38;10547633;28;20050;-62
2021/12/18 19:30:23;;;;;;;21.65;13.38;;;;;;;6.86;100.00;104606.97;10546920;28;20502;-60
2021/12/18 19:35:29;;;;;;;21.98;13.02;;;;;;;6.96;100.00;104611.50;10547547;28;20044;-61
2021/12/18 19:40:32;;;;;;;20.20;12.68;;;;;;;6.98;100.00;104616.75;10546546;28;20060;-60
2021/12/18 19:45:36;;;;;;;17.95;12.90;;;;;;;6.85;100.00;104605.22;10546417;28;20480;-60
2021/12/18 19:50:41;;;;;;;26.10;14.43;;;;;;;6.97;100.00;104635.84;10546102;28;20077;-59
2021/12/18 19:55:43;;;;;;;19.90;13.18;;;;;;;6.80;100.00;104609.47;10546221;28;20040;-60
2021/12/18 20:00:45;;;;;;;19.00;12.27;;;;;;;7.05;100.00;104610.81;10545881;28;20048;-61
2021/12/18 20:05:48;;;;;;;17.60;12.10;;;;;;;6.81;100.00;104603.41;10545677;28;20054;-61
2021/12/18 20:10:52;;;;;;;16.58;10.98;;;;;;;6.83;100.00;104588.69;10545514;28;20054;-60
2021/12/18 20:15:54;;;;;;;19.55;10.77;;;;;;;6.98;100.00;104586.34;10545169;28;20506;-60
2021/12/18 20:20:58;;;;;;;12.00;9.00;;;;;;;6.88;100.00;104585.31;10544930;28;20051;-61
2021/12/18 20:26:01;;;;;;;13.27;8.60;;;;;;;6.94;100.00;104583.66;10544207;28;20040;-60
2021/12/18 20:31:05;;;;;;;11.88;8.27;;;;;;;6.99;100.00;104601.16;10544397;28;20059;-60
2021/12/18 20:36:08;;;;;;;13.88;7.90;;;;;;;6.64;100.00;104567.50;10544714;28;20044;-60
2021/12/18 20:41:11;;;;;;;12.18;7.03;;;;;;;7.03;100.00;104586.44;10544193;28;20052;-60
2021/12/18 20:46:16;;;;;;;15.80;8.85;;;;;;;6.86;100.00;104578.31;10544333;28;20048;-60
2021/12/18 20:51:19;;;;;;;13.50;8.60;;;;;;;6.97;100.00;104575.91;10544023;28;20048;-60
2021/12/18 20:56:22;;;;;;;21.27;13.20;;;;;;;6.88;100.00;104571.41;10543671;28;20407;-60
2021/12/18 21:01:24;;;;;;;27.10;15.05;;;;;;;6.78;100.00;104567.75;10543778;28;20407;-62
2021/12/18 21:06:27;;;;;;;31.45;17.40;;;;;;;6.79;100.00;104564.31;10543287;28;20051;-60
2021/12/18 21:11:30;;;;;;;18.05;12.40;;;;;;;6.72;100.00;104567.63;10541656;28;20054;-60
2021/12/18 21:16:36;;;;;;;18.67;11.43;;;;;;;6.76;100.00;104558.13;10542969;28;20044;-61
2021/12/18 21:21:39;;;;;;;16.98;10.70;;;;;;;6.94;100.00;104568.91;10541344;28;20048;-60
2021/12/18 21:26:42;;;;;;;22.35;12.60;;;;;;;6.80;100.00;104559.97;10542694;28;20050;-61
2021/12/18 21:31:44;;;;;;;18.67;12.93;;;;;;;6.82;100.00;104553.91;10542261;28;20052;-59
2021/12/18 21:36:48;;;;;;;15.90;10.80;;;;;;;6.76;100.00;104552.94;10541902;28;20062;-60
2021/12/18 21:42:07;;;;;;;13.43;9.90;;;;;;;6.76;100.00;104556.44;10542029;28;20051;-60
2021/12/18 21:47:13;;;;;;;15.15;10.15;;;;;;;6.72;100.00;104545.91;10541855;28;20051;-59
2021/12/18 21:52:16;;;;;;;10.77;8.55;;;;;;;6.97;100.00;104568.97;10540332;28;20052;-59
2021/12/18 21:57:18;;;;;;;17.85;11.50;;;;;;;6.81;100.00;104552.19;10541869;28;20054;-60
2021/12/18 22:02:20;;;;;;;24.35;15.40;;;;;;;6.61;100.00;104538.78;10539958;28;20044;-58
2021/12/18 22:07:23;;;;;;;19.17;12.68;;;;;;;6.84;100.00;104547.03;10541664;28;20055;-59
2021/12/18 22:12:25;;;;;;;19.30;12.98;;;;;;;6.83;100.00;104537.47;10541055;28;20059;-58
2021/12/18 22:17:27;;;;;;;20.75;12.75;;;;;;;6.79;100.00;104542.56;10540534;28;20048;-58
2021/12/18 22:22:29;;;;;;;20.95;11.63;;;;;;;6.72;100.00;104530.28;10541002;28;20048;-60
2021/12/18 22:27:32;;;;;;;18.80;11.98;;;;;;;6.72;100.00;104543.31;10539075;28;20063;-60
2021/12/18 22:32:35;;;;;;;17.45;10.43;;;;;;;6.80;100.00;104532.19;10539938;28;20051;-61
2021/12/18 22:37:37;;;;;;;18.42;11.50;;;;;;;6.68;100.00;104525.03;10539985;28;20040;-58
2021/12/18 22:42:40;;;;;;;18.48;11.48;;;;;;;6.64;100.00;104518.00;10539886;28;20044;-59
2021/12/18 22:47:45;;;;;;;18.52;11.65;;;;;;;6.62;100.00;104517.13;10538688;28;20060;-58
2021/12/18 22:52:49;;;;;;;18.70;13.23;;;;;;;6.77;100.00;104536.47;10550898;28;20102;-59
2021/12/18 22:57:51;;;;;;;21.67;14.27;;;;;;;6.65;100.00;104505.88;10553785;28;20090;-61
2021/12/18 23:02:58;;;;;;;13.93;9.63;;;;;;;6.67;100.00;104507.66;10552226;28;20058;-59
2021/12/18 23:08:02;;;;;;;19.95;12.15;;;;;;;6.71;100.00;104506.00;10553721;28;20055;-59
2021/12/18 23:23:25;;;;;;;16.75;10.77;;;;;;;6.67;100.00;104476.41;10553413;28;20147;-58
2021/12/18 23:28:28;;;;;;;16.58;10.63;;;;;;;6.81;100.00;104484.47;10553045;28;20051;-60
2021/12/18 23:33:31;;;;;;;18.67;10.95;;;;;;;6.74;100.00;104466.97;10553224;28;20048;-61
2021/12/18 23:38:33;;;;;;;29.95;12.45;;;;;;;6.61;100.00;104459.81;10552962;28;20044;-60
2021/12/18 23:48:38;;;;;;;22.65;14.45;;;;;;;6.56;100.00;104453.63;10552433;28;20048;-59
2021/12/18 23:53:41;;;;;;;20.77;12.80;;;;;;;6.40;100.00;104434.25;10553037;28;20484;-60
2021/12/18 23:58:43;;;;;;;18.65;11.63;;;;;;;6.50;100.00;104447.44;10552649;28;20051;-59
